Merom, Indiana
Current Conditions -  °F | °C
As of 1:35 AM on Tuesday 21 Oct 2014 (Local Time) from KRSV Reporting Station
Clear Clear  
Wind Chill: 49°   Ceiling: Unl
Heat Index: 49°   Visibility: 10mi
Dew Point: 45°   Wind: 3mph
Humidity: 87%   Direction: 300°WNW
Pressure: 30"   Gusts: NA
Location:  39.06°N, 87.57°W
Report Text: KRSV 210535Z AUTO 30003KT 10SM CLR 09/07 A3000 RMK AO2 T00920071
Loading
Personal Weather Stations






























Interactive Weather Map
Tropical Storm Tracking
New forecast layout! Learn more

10-Day Weather Forecast

Advertisements
Track Severe Weather on mobile